Alhambra, Illinois
Current Conditions -  °F | °C
As of 7:50 AM on Friday 24 Oct 2014 (Local Time) from KALN Reporting Station
Overcast Overcast  
Wind Chill: 50°   Ceiling: 500
Heat Index: 50°   Visibility: 8mi
Dew Point: 50°   Wind: 5mph
Humidity: 100%   Direction: 290°WNW
Pressure: 30.11"   Gusts: NA
Location:  38.89°N, 89.73°W
Report Text: KALN 241250Z 29004KT 8SM OVC005 10/10 A3011
Loading
Personal Weather Stations






























Interactive Weather Map
Tropical Storm Tracking
New forecast layout! Learn more

10-Day Weather Forecast

Advertisements
Track Severe Weather on mobile